Nearby METAR Reports

 

KSYN - Stanton, Minnesota, USA
Distance from station: NW 20mi, 33km
Updated: Tue, 26-Oct-2021 6:15pm CDT
Clear
Clear
 Wind from ESE
Wind: ESE 8 mph , 13 km/h
Temperature: 54°F , 12°C
Dew Point: 32°F , 0°C
Humidity: 44%
Barometer: 29.90 inHg , 1012.5 hPa
Clouds: Clear
Visibility: 10 miles , 16 km
2021/10/26 23:15 KSYN 262315Z AUTO 12007KT 10SM CLR 12/00 A2990 RMK AO2 T01150001
KTOB - Dodge Center, Minnesota, USA
Distance from station: SSW 21mi, 34km
Updated: Tue, 26-Oct-2021 6:15pm CDT

 Wind from SE
Wind: SE 15 mph , 24 km/h
Temperature: 52°F , 11°C
Dew Point: 32°F , 0°C
Humidity: 47%
Barometer: 29.91 inHg , 1012.9 hPa
Visibility: 10 miles , 16 km
2021/10/26 23:15 KTOB 262315Z AUTO 13013KT 10SM 11/00 A2991 RMK AO2 PWINO
K9MN - St Mary Hospital, Minnesota, USA
Distance from station: SSE 22mi, 35km
Updated: Tue, 26-Oct-2021 6:15pm CDT
Clear
Clear
 Wind from ESE
Wind: ESE 10 mph , 17 km/h, Gust: 20 mph , 31 km/h
Temperature: 52°F , 11°C
Dew Point: 32°F , 0°C
Humidity: 47%
Barometer: 29.93 inHg , 1013.5 hPa
Clouds: Clear
Visibility: 10 miles , 16 km
2021/10/26 23:15 K9MN 262315Z AUTO 11009G17KT 10SM CLR 11/00 A2993 RMK AO1 T01130000
 
KRGK - Red Wing, Minnesota, USA
Distance from station: NNE 22mi, 35km
Updated: Tue, 26-Oct-2021 6:15pm CDT
Clear
Clear
 Wind from ESE
Wind: ESE 9 mph , 15 km/h
Temperature: 52°F , 11°C
Dew Point: 30°F , -1°C
Humidity: 44%
Barometer: 29.92 inHg , 1013.2 hPa
Clouds: Clear
Visibility: 10 miles , 16 km
2021/10/26 23:15 KRGK 262315Z AUTO 12008KT 10SM CLR 11/M01 A2992 RMK AO2
KRST - Rochester, Minnesota, USA
Distance from station: SSE 29mi, 47km
Updated: Tue, 26-Oct-2021 5:54pm CDT
Clear
Clear
 Wind from ESE
Wind: ESE 16 mph , 26 km/h
Temperature: 50°F , 10°C
Wind Chill: 44°F , 7°C
Dew Point: 34°F , 1°C
Humidity: 54%
Barometer: 29.93 inHg , 1013.5 hPa
Clouds: Clear
Visibility: 10 miles , 16 km
2021/10/26 22:54 KRST 262254Z 12014KT 10SM CLR 10/01 A2993 RMK AO2 SLP143 T01000011
KOWA - Owatonna, Minnesota, USA
Distance from station: WSW 31mi, 50km
Updated: Tue, 26-Oct-2021 6:13pm CDT
Clear
Clear
 Wind from ESE
Wind: ESE 17 mph , 28 km/h, Gust: 23 mph , 37 km/h
Temperature: 54°F , 12°C
Dew Point: 36°F , 2°C
Humidity: 51%
Barometer: 29.88 inHg , 1011.9 hPa
Clouds: Clear
Visibility: 10 miles , 16 km
2021/10/26 23:13 KOWA 262313Z AUTO 12015G20KT 10SM CLR 12/02 A2988 RMK AO2
 
KFBL - Faribault Muni, Minnesota, USA
Distance from station: W 32mi, 51km
Updated: Tue, 26-Oct-2021 6:15pm CDT
Clear
Clear
 Wind from E
Wind: E 15 mph , 24 km/h, Gust: 20 mph , 31 km/h
Temperature: 54°F , 12°C
Dew Point: 34°F , 1°C
Humidity: 47%
Barometer: 29.89 inHg , 1012.2 hPa
Clouds: Clear
Visibility: 10 miles , 16 km
2021/10/26 23:15 KFBL 262315Z AUTO 10013G17KT 10SM CLR 12/01 A2989 RMK AO2
KSGS - South St Paul, Minnesota, USA
Distance from station: NNW 43mi, 69km
Updated: Tue, 26-Oct-2021 6:15pm CDT
Clear
Clear
 Wind from SE
Wind: SE 7 mph , 11 km/h
Temperature: 54°F , 12°C
Dew Point: 30°F , -1°C
Humidity: 41%
Barometer: 29.91 inHg , 1012.9 hPa
Clouds: Clear
Visibility: 10 miles , 16 km
2021/10/26 23:15 KSGS 262315Z AUTO 13006KT 10SM CLR 12/M01 A2991 RMK AO2 T01201010
KAUM - Austin Muni, Minnesota, USA
Distance from station: SSW 46mi, 73km
Updated: Tue, 26-Oct-2021 6:15pm CDT
Clear
Clear
 Wind from ESE
Wind: ESE 14 mph , 22 km/h
Temperature: 52°F , 11°C
Dew Point: 37°F , 3°C
Humidity: 58%
Barometer: 29.90 inHg , 1012.5 hPa
Clouds: Clear
Visibility: 10 miles , 16 km
2021/10/26 23:15 KAUM 262315Z AUTO 12012KT 10SM CLR 11/03 A2990 RMK AO2
 
KACQ - Waseca, Minnesota, USA
Distance from station: WSW 46mi, 75km
Updated: Tue, 26-Oct-2021 6:15pm CDT
Clear
Clear
 Wind from ESE
Wind: ESE 13 mph , 20 km/h
Temperature: 52°F , 11°C
Dew Point: 34°F , 1°C
Humidity: 50%
Barometer: 29.87 inHg , 1011.5 hPa
Clouds: Clear
Visibility: 10 miles , 16 km
2021/10/26 23:15 KACQ 262315Z AUTO 11011KT 10SM CLR 11/01 A2987 RMK AO2
KSTP - St. Paul, Minnesota, USA
Distance from station: NNW 47mi, 76km
Updated: Tue, 26-Oct-2021 5:53pm CDT
Clear
Clear
 Wind from ESE
Wind: ESE 14 mph , 22 km/h
Temperature: 55°F , 13°C
Dew Point: 30°F , -1°C
Humidity: 38%
Barometer: 29.92 inHg , 1013.2 hPa
Clouds: Clear
Visibility: 10 miles , 16 km
2021/10/26 22:53 KSTP 262253Z 12012KT 10SM CLR 13/M01 A2992 RMK AO2 PK WND 11027/2203 SLP132 T01281006
KMSP - Minneapolis, Minnesota, USA
Distance from station: NW 49mi, 78km
Updated: Tue, 26-Oct-2021 5:53pm CDT
Few Clouds
Few Clouds
 Wind from ESE
Wind: ESE 23 mph , 37 km/h, Gust: 38 mph , 61 km/h
Temperature: 54°F , 12°C
Dew Point: 34°F , 1°C
Humidity: 47%
Barometer: 29.90 inHg , 1012.5 hPa
Clouds: Few Clouds
Visibility: 10 miles , 16 km
Cloud details: Few Clouds 25000 ft
2021/10/26 22:53 KMSP 262253Z 12020G33KT 10SM FEW250 12/01 A2990 RMK AO2 PK WND 13033/2250 SLP130 T01170006